createdAt,value
2023-03-12T00:01:17.018Z,100503.44
2023-03-12T00:04:20.928Z,100503.56
2023-03-12T00:07:24.082Z,100497.59
2023-03-12T00:10:28.558Z,100497.63
2023-03-12T00:13:31.584Z,100490.78
2023-03-12T00:16:34.739Z,100497.53
2023-03-12T00:19:37.780Z,100498.28
2023-03-12T00:22:41.436Z,100502.72
2023-03-12T00:25:46.918Z,100488.09
2023-03-12T00:28:50.998Z,100485.59
2023-03-12T00:31:54.207Z,100499.31
2023-03-12T00:34:57.927Z,100496.91
2023-03-12T00:38:03.229Z,100505.38
2023-03-12T00:41:07.914Z,100503.72
2023-03-12T00:44:14.085Z,100504.47
2023-03-12T00:47:17.480Z,100510.50
2023-03-12T00:50:20.898Z,100512.16
2023-03-12T00:53:27.132Z,100510.41
2023-03-12T00:56:31.817Z,100516.31
2023-03-12T00:59:35.346Z,100513.06
2023-03-12T01:02:39.703Z,100519.72
2023-03-12T01:05:49.035Z,100517.00
2023-03-12T01:08:55.269Z,100514.34
2023-03-12T01:12:03.147Z,100522.81
2023-03-12T01:15:11.901Z,100526.03
2023-03-12T01:18:15.596Z,100533.75
2023-03-12T01:21:21.459Z,100533.63
2023-03-12T01:24:25.471Z,100537.88
2023-03-12T01:27:30.438Z,100527.56
2023-03-12T01:30:35.734Z,100524.84
2023-03-12T01:33:40.205Z,100530.91
2023-03-12T01:36:52.212Z,100523.94
2023-03-12T01:40:04.673Z,100525.78
2023-03-12T01:43:31.724Z,100537.88
2023-03-12T01:46:38.385Z,100539.56
2023-03-12T01:49:49.760Z,100536.09
2023-03-12T01:53:07.077Z,100552.16
2023-03-12T01:56:11.975Z,100549.47
2023-03-12T01:59:23.831Z,100551.19
2023-03-12T02:02:32.166Z,100550.22
2023-03-12T02:05:44.364Z,100552.03
2023-03-12T02:08:49.188Z,100553.72
2023-03-12T02:11:52.414Z,100557.97
2023-03-12T02:14:58.033Z,100561.38
2023-03-12T02:18:04.086Z,100565.72
2023-03-12T02:21:17.480Z,100576.09
2023-03-12T02:24:31.814Z,100577.91
2023-03-12T02:27:38.483Z,100580.53
2023-03-12T02:30:45.898Z,100582.31
2023-03-12T02:33:49.457Z,100580.59
2023-03-12T02:36:55.641Z,100582.41
2023-03-12T02:40:06.752Z,100586.72
2023-03-12T02:43:14.730Z,100593.72
2023-03-12T02:46:18.434Z,100610.22
2023-03-12T02:49:26.151Z,100591.44
2023-03-12T02:52:35.537Z,100600.09
2023-03-12T02:55:38.899Z,100610.66
2023-03-12T02:58:44.737Z,100614.03
2023-03-12T03:01:48.363Z,100612.72
2023-03-12T03:04:51.876Z,100611.00
2023-03-12T03:08:01.071Z,100614.50
2023-03-12T03:11:04.508Z,100621.56
2023-03-12T03:14:10.429Z,100612.19
2023-03-12T03:17:16.103Z,100615.72
2023-03-12T03:20:21.300Z,100624.41
2023-03-12T03:23:26.081Z,100619.28
2023-03-12T03:26:29.326Z,100628.81
2023-03-12T03:29:37.036Z,100629.91
2023-03-12T03:32:40.474Z,100626.38
2023-03-12T03:35:44.919Z,100634.06
2023-03-12T03:38:50.477Z,100629.91
2023-03-12T03:41:54.656Z,100630.69
2023-03-12T03:45:09.252Z,100633.53
2023-03-12T03:48:13.467Z,100640.34
2023-03-12T03:51:17.092Z,100642.97
2023-03-12T03:54:23.465Z,100655.91
2023-03-12T03:57:27.797Z,100648.34
2023-03-12T04:00:32.701Z,100655.91
2023-03-12T04:03:36.961Z,100661.84
2023-03-12T04:06:43.307Z,100657.75
2023-03-12T04:09:47.013Z,100658.59
2023-03-12T04:12:56.693Z,100668.06
2023-03-12T04:16:01.828Z,100674.78
2023-03-12T04:19:05.231Z,100670.63
2023-03-12T04:22:08.816Z,100675.69
2023-03-12T04:25:12.100Z,100674.97
2023-03-12T04:28:21.217Z,100674.97
2023-03-12T04:31:29.390Z,100673.44
2023-03-12T04:34:32.714Z,100672.47
2023-03-12T04:37:44.050Z,100676.81
2023-03-12T04:40:58.173Z,100675.31
2023-03-12T04:44:01.471Z,100678.72
2023-03-12T04:47:06.535Z,100683.03
2023-03-12T04:50:18.381Z,100684.84
2023-03-12T04:53:25.795Z,100692.59
2023-03-12T04:56:29.329Z,100691.78
2023-03-12T04:59:32.850Z,100690.09
2023-03-12T05:02:38.132Z,100691.91
2023-03-12T05:05:41.691Z,100696.22
2023-03-12T05:08:50.994Z,100699.63
2023-03-12T05:11:57.547Z,100697.84
2023-03-12T05:15:02.280Z,100704.88
2023-03-12T05:18:10.775Z,100703.19
2023-03-12T05:21:16.809Z,100712.53
2023-03-12T05:24:24.085Z,100708.22
2023-03-12T05:27:28.471Z,100708.25
2023-03-12T05:30:32.617Z,100701.53
2023-03-12T05:33:40.270Z,100696.47
2023-03-12T05:36:45.208Z,100701.59
2023-03-12T05:39:57.280Z,100701.72
2023-03-12T05:43:00.523Z,100697.41
2023-03-12T05:46:06.405Z,100700.03
2023-03-12T05:49:12.845Z,100700.16
2023-03-12T05:52:18.630Z,100701.91
2023-03-12T05:55:21.974Z,100698.47
2023-03-12T05:58:34.294Z,100698.41
2023-03-12T06:01:46.170Z,100707.81
2023-03-12T06:04:56.712Z,100709.44
2023-03-12T06:08:02.374Z,100707.81
2023-03-12T06:11:11.449Z,100707.94
2023-03-12T06:14:19.046Z,100713.84
2023-03-12T06:17:22.722Z,100712.09
2023-03-12T06:20:30.969Z,100701.91
2023-03-12T06:23:37.390Z,100709.44
2023-03-12T06:26:42.711Z,100709.44
2023-03-12T06:29:47.164Z,100711.75
2023-03-12T06:32:52.541Z,100716.00
2023-03-12T06:35:58.583Z,100722.56
2023-03-12T06:39:01.680Z,100719.28
2023-03-12T06:42:05.257Z,100719.09
2023-03-12T06:45:12.054Z,100718.94
2023-03-12T06:48:16.096Z,100728.28
2023-03-12T06:51:28.630Z,100728.94
2023-03-12T06:54:37.630Z,100728.75
2023-03-12T06:57:55.626Z,100732.16
2023-03-12T07:00:59.056Z,100738.78
2023-03-12T07:04:05.548Z,100738.53
2023-03-12T07:07:11.913Z,100735.78
2023-03-12T07:10:28.390Z,100732.13
2023-03-12T07:18:03.048Z,100722.88
2023-03-12T07:21:14.830Z,100729.34
2023-03-12T07:24:27.900Z,100729.84
2023-03-12T07:27:35.886Z,100732.22
2023-03-12T07:30:57.742Z,100737.13
2023-03-12T07:36:18.346Z,100739.38
2023-03-12T07:38:53.577Z,100747.13
2023-03-12T07:42:24.717Z,100753.94
2023-03-12T07:46:24.896Z,100747.00
2023-03-12T07:50:02.326Z,100753.34
2023-03-12T07:53:23.561Z,100755.13
2023-03-12T07:57:11.838Z,100752.13
2023-03-12T08:01:13.435Z,100756.31
2023-03-12T08:05:05.221Z,100754.28
2023-03-12T08:08:19.561Z,100758.44
2023-03-12T08:11:48.675Z,100758.84
2023-03-12T08:18:39.796Z,100770.50
2023-03-12T08:45:17.210Z,100770.34
2023-03-12T09:09:05.174Z,100753.59
2023-03-12T09:12:17.640Z,100752.47
2023-03-12T09:15:46.730Z,100754.97
2023-03-12T09:19:02.329Z,100755.03
2023-03-12T09:22:10.020Z,100745.50
2023-03-12T09:25:29.180Z,100743.88
2023-03-12T09:28:37.035Z,100738.38
2023-03-12T09:32:33.621Z,100732.47
2023-03-12T09:35:52.485Z,100728.19
2023-03-12T09:39:06.088Z,100740.59
2023-03-12T09:43:09.684Z,100731.44
2023-03-12T09:46:46.081Z,100735.84
2023-03-12T09:50:21.636Z,100729.63
2023-03-12T09:54:48.018Z,100731.59
2023-03-12T09:58:13.695Z,100736.34
2023-03-12T10:02:11.516Z,100722.72
2023-03-12T10:06:03.789Z,100704.28
2023-03-12T10:10:11.553Z,100704.28
2023-03-12T10:13:35.448Z,100698.06
2023-03-12T10:17:00.089Z,100699.50
2023-03-12T10:20:51.938Z,100699.50
2023-03-12T10:24:46.786Z,100697.28
2023-03-12T10:28:34.487Z,100691.28
2023-03-12T10:32:11.569Z,100685.38
2023-03-12T10:35:33.597Z,100682.31
2023-03-12T10:38:37.369Z,100672.53
2023-03-12T10:41:43.589Z,100665.53
2023-03-12T10:44:52.874Z,100673.72
2023-03-12T10:48:03.019Z,100674.66
2023-03-12T10:51:15.049Z,100673.13
2023-03-12T10:54:41.526Z,100663.34
2023-03-12T10:57:59.043Z,100672.44
2023-03-12T11:01:27.342Z,100652.09
2023-03-12T11:04:53.281Z,100651.09
2023-03-12T11:08:02.040Z,100636.88
2023-03-12T11:11:08.959Z,100637.34
2023-03-12T11:14:22.155Z,100631.28
2023-03-12T11:17:41.087Z,100624.28
2023-03-12T11:20:52.216Z,100629.25
2023-03-12T11:24:15.237Z,100632.31
2023-03-12T11:28:08.077Z,100619.53
2023-03-12T11:32:17.381Z,100626.47
2023-03-12T11:36:23.927Z,100621.34
2023-03-12T11:40:17.012Z,100610.41
2023-03-12T11:48:43.476Z,100600.41
2023-03-12T11:53:03.235Z,100608.28
2023-03-12T12:27:33.808Z,100550.41
2023-03-12T12:31:04.809Z,100531.06
2023-03-12T12:35:06.610Z,100515.72
2023-03-12T12:38:32.072Z,100505.78
2023-03-12T12:42:07.876Z,100512.09
2023-03-12T12:45:26.530Z,100498.25
2023-03-12T12:49:08.589Z,100487.78
2023-03-12T12:52:29.843Z,100499.22
2023-03-12T12:55:50.050Z,100500.53
2023-03-12T12:59:46.930Z,100481.22
2023-03-12T13:03:08.209Z,100497.84
2023-03-12T13:06:12.556Z,100498.38
2023-03-12T13:09:37.432Z,100500.56
2023-03-12T13:13:03.697Z,100485.78
2023-03-12T13:16:35.057Z,100480.78
2023-03-12T13:19:55.600Z,100483.47
2023-03-12T13:23:38.951Z,100477.47
2023-03-12T13:27:15.523Z,100481.78
2023-03-12T13:30:52.569Z,100471.78
2023-03-12T13:34:01.663Z,100472.25
2023-03-12T13:37:56.253Z,100464.91
2023-03-12T13:41:03.841Z,100463.59
2023-03-12T13:44:54.136Z,100465.22
2023-03-12T13:48:06.401Z,100462.03
2023-03-12T13:51:25.411Z,100445.47
2023-03-12T13:54:41.764Z,100425.00
2023-03-12T13:58:26.278Z,100442.03
2023-03-12T14:01:45.145Z,100447.94
2023-03-12T14:04:54.072Z,100432.44
2023-03-12T14:09:09.319Z,100441.84
2023-03-12T14:12:23.475Z,100443.38
2023-03-12T14:15:39.466Z,100423.53
2023-03-12T14:18:54.159Z,100438.25
2023-03-12T14:22:09.087Z,100441.91
2023-03-12T14:25:31.071Z,100429.06
2023-03-12T14:28:47.663Z,100425.19
2023-03-12T14:32:25.142Z,100422.09
2023-03-12T14:35:38.015Z,100425.88
2023-03-12T14:38:49.171Z,100433.28
2023-03-12T14:42:06.664Z,100427.41
2023-03-12T14:45:19.929Z,100445.38
2023-03-12T14:48:38.485Z,100442.41
2023-03-12T14:51:46.864Z,100428.81
2023-03-12T14:55:04.732Z,100423.75
2023-03-12T14:58:30.927Z,100413.25
2023-03-12T15:01:39.759Z,100412.38
2023-03-12T15:04:50.191Z,100394.41
2023-03-12T15:08:04.109Z,100392.88
2023-03-12T15:11:10.678Z,100397.41
2023-03-12T15:14:22.269Z,100399.66
2023-03-12T15:17:33.628Z,100394.97
2023-03-12T15:20:41.563Z,100374.75
2023-03-12T15:23:48.670Z,100372.56
2023-03-12T15:27:04.987Z,100372.81
2023-03-12T15:30:33.301Z,100360.44
2023-03-12T15:33:37.050Z,100369.25
2023-03-12T15:37:00.902Z,100380.50
2023-03-12T15:40:22.282Z,100381.78
2023-03-12T15:43:41.307Z,100386.16
2023-03-12T15:46:53.666Z,100387.81
2023-03-12T15:50:36.919Z,100381.00
2023-03-12T15:54:41.628Z,100362.34
2023-03-12T15:58:06.081Z,100362.66
2023-03-12T16:01:12.556Z,100371.16
2023-03-12T16:04:15.768Z,100356.06
2023-03-12T16:07:19.245Z,100368.13
2023-03-12T16:10:30.037Z,100364.13
2023-03-12T16:13:45.656Z,100362.47
2023-03-12T16:16:58.158Z,100350.44
2023-03-12T16:20:01.332Z,100356.19
2023-03-12T16:23:11.341Z,100344.06
2023-03-12T16:26:41.708Z,100338.00
2023-03-12T16:30:14.156Z,100338.91
2023-03-12T16:33:22.746Z,100344.59
2023-03-12T16:37:01.516Z,100334.50
2023-03-12T16:40:35.152Z,100324.13
2023-03-12T16:44:02.748Z,100318.06
2023-03-12T16:47:18.683Z,100319.94
2023-03-12T16:50:44.781Z,100319.03
2023-03-12T16:54:10.745Z,100323.06
2023-03-12T16:57:40.908Z,100344.53
2023-03-12T17:01:14.376Z,100345.44
2023-03-12T17:04:45.590Z,100339.69
2023-03-12T17:07:54.435Z,100337.53
2023-03-12T17:15:01.953Z,100336.47
2023-03-12T17:18:26.773Z,100322.25
2023-03-12T17:21:53.001Z,100322.38
2023-03-12T17:25:11.354Z,100321.19
2023-03-12T17:28:24.343Z,100329.75
2023-03-12T17:31:34.262Z,100316.63
2023-03-12T17:35:03.317Z,100309.81
2023-03-12T17:38:06.723Z,100314.22
2023-03-12T17:41:25.431Z,100315.75
2023-03-12T17:44:38.921Z,100307.09
2023-03-12T17:47:42.391Z,100301.94
2023-03-12T17:50:49.660Z,100302.16
2023-03-12T17:54:05.887Z,100293.69
2023-03-12T17:57:11.623Z,100300.00
2023-03-12T18:00:23.383Z,100300.94
2023-03-12T18:03:32.997Z,100299.59
2023-03-12T18:06:40.387Z,100301.56
2023-03-12T18:09:59.495Z,100296.19
2023-03-12T18:13:05.390Z,100282.06
2023-03-12T18:16:11.632Z,100276.44
2023-03-12T18:19:16.112Z,100272.97
2023-03-12T18:22:26.388Z,100257.38
2023-03-12T18:25:46.674Z,100257.53
2023-03-12T18:29:01.470Z,100245.72
2023-03-12T18:32:23.482Z,100240.50
2023-03-12T18:36:08.858Z,100232.69
2023-03-12T18:44:39.565Z,100230.28
2023-03-12T19:04:05.254Z,100204.84
2023-03-12T19:08:41.447Z,100190.06
2023-03-12T19:17:57.336Z,100174.53
2023-03-12T19:28:43.529Z,100144.56
2023-03-12T20:00:57.874Z,100135.19
2023-03-12T20:19:00.658Z,100126.53
2023-03-12T20:31:11.487Z,100116.53
2023-03-12T20:35:16.768Z,100104.88
2023-03-12T20:38:43.984Z,100096.78
2023-03-12T20:55:09.345Z,100100.84
2023-03-12T20:59:01.301Z,100086.13
2023-03-12T21:02:53.796Z,100104.44
2023-03-12T21:06:26.316Z,100099.09
2023-03-12T21:10:05.553Z,100110.72
2023-03-12T21:13:34.399Z,100105.25
2023-03-12T21:17:00.565Z,100116.88
2023-03-12T21:20:33.390Z,100119.22
2023-03-12T21:23:40.099Z,100107.31
2023-03-12T21:26:52.111Z,100103.47
2023-03-12T21:29:55.150Z,100103.88
2023-03-12T21:32:59.143Z,100101.28
2023-03-12T21:36:09.422Z,100098.34
2023-03-12T21:39:17.175Z,100106.78
2023-03-12T21:42:22.393Z,100093.69
2023-03-12T21:45:32.797Z,100090.47
2023-03-12T21:48:41.292Z,100072.97
2023-03-12T21:51:44.745Z,100067.50
2023-03-12T21:54:54.570Z,100074.25
2023-03-12T21:57:59.083Z,100072.69
2023-03-12T22:01:17.143Z,100086.97
2023-03-12T22:04:22.288Z,100083.41
2023-03-12T22:07:30.846Z,100086.81
2023-03-12T22:10:35.510Z,100076.13
2023-03-12T22:13:43.257Z,100087.13
2023-03-12T22:16:50.016Z,100088.78
2023-03-12T22:19:53.108Z,100086.84
2023-03-12T22:22:57.828Z,100088.16
2023-03-12T22:26:05.944Z,100079.56
2023-03-12T22:29:10.940Z,100078.19
2023-03-12T22:32:13.946Z,100076.53
2023-03-12T22:35:25.663Z,100074.69
2023-03-12T22:38:34.909Z,100081.25
2023-03-12T22:41:37.976Z,100074.97
2023-03-12T22:44:44.930Z,100076.63
2023-03-12T22:47:49.174Z,100064.84
2023-03-12T22:50:54.745Z,100057.91
2023-03-12T22:54:03.151Z,100061.41
2023-03-12T22:57:08.233Z,100070.81
2023-03-12T23:00:16.612Z,100068.97
2023-03-12T23:03:19.660Z,100067.50
2023-03-12T23:06:25.232Z,100073.59
2023-03-12T23:09:36.232Z,100067.78
2023-03-12T23:12:42.604Z,100066.50
2023-03-12T23:15:46.974Z,100064.91
2023-03-12T23:18:53.470Z,100062.34
2023-03-12T23:22:02.053Z,100063.06
2023-03-12T23:25:12.022Z,100062.16
2023-03-12T23:28:19.240Z,100054.09
2023-03-12T23:31:29.613Z,100051.72
2023-03-12T23:34:40.329Z,100062.50
2023-03-12T23:37:45.744Z,100050.31
2023-03-12T23:40:48.821Z,100046.84
2023-03-12T23:43:52.590Z,100044.06
2023-03-12T23:46:56.971Z,100044.63
2023-03-12T23:50:03.414Z,100033.47
2023-03-12T23:53:16.703Z,100039.06
2023-03-12T23:56:21.963Z,100032.63
2023-03-12T23:59:24.921Z,100047.00
